createdAt,value
2018-10-12T00:01:16.821Z,59.10
2018-10-12T00:03:45.664Z,52.10
2018-10-12T00:06:14.186Z,57.43
2018-10-12T00:08:42.745Z,50.10
2018-10-12T00:11:12.050Z,50.40
2018-10-12T00:13:40.573Z,59.73
2018-10-12T00:16:09.217Z,67.87
2018-10-12T00:18:37.784Z,71.07
2018-10-12T00:21:06.384Z,73.43
2018-10-12T00:23:35.605Z,71.20
2018-10-12T00:26:04.099Z,72.80
2018-10-12T00:28:32.805Z,71.67
2018-10-12T00:31:01.788Z,77.23
2018-10-12T00:33:31.363Z,83.47
2018-10-12T00:36:00.103Z,83.30
2018-10-12T00:38:28.737Z,82.33
2018-10-12T00:40:57.461Z,85.40
2018-10-12T00:43:26.002Z,80.90
2018-10-12T00:45:55.611Z,85.90
2018-10-12T00:48:24.138Z,78.80
2018-10-12T00:50:52.678Z,81.67
2018-10-12T00:53:21.260Z,79.33
2018-10-12T00:55:50.300Z,80.90
2018-10-12T00:58:18.858Z,79.83
2018-10-12T01:00:47.618Z,78.93
2018-10-12T01:03:16.270Z,86.33
2018-10-12T01:05:44.779Z,75.90
2018-10-12T01:08:13.487Z,82.13
2018-10-12T01:10:42.176Z,75.13
2018-10-12T01:13:10.937Z,82.83
2018-10-12T01:15:39.483Z,79.97
2018-10-12T01:18:09.085Z,85.30
2018-10-12T01:20:38.101Z,82.13
2018-10-12T01:23:06.963Z,81.23
2018-10-12T01:25:35.768Z,78.60
2018-10-12T01:28:04.520Z,79.83
2018-10-12T01:30:33.045Z,75.73
2018-10-12T01:33:05.935Z,83.60
2018-10-12T01:35:35.050Z,80.47
2018-10-12T01:38:03.683Z,86.00
2018-10-12T01:40:32.899Z,88.10
2018-10-12T01:43:02.121Z,80.37
2018-10-12T01:45:31.173Z,73.03
2018-10-12T01:47:59.734Z,73.97
2018-10-12T01:50:28.353Z,76.80
2018-10-12T01:52:56.870Z,84.87
2018-10-12T01:55:25.617Z,88.47
2018-10-12T01:57:54.131Z,88.70
2018-10-12T02:00:22.779Z,100.43
2018-10-12T02:02:51.346Z,97.40
2018-10-12T02:05:20.501Z,96.53
2018-10-12T02:07:50.033Z,93.53
2018-10-12T02:10:18.599Z,97.87
2018-10-12T02:12:47.103Z,108.60
2018-10-12T02:15:15.949Z,119.70
2018-10-12T02:17:44.524Z,121.27
2018-10-12T02:20:13.353Z,115.37
2018-10-12T02:22:42.359Z,121.90
2018-10-12T02:25:11.567Z,117.03
2018-10-12T02:27:40.069Z,119.87
2018-10-12T02:30:09.135Z,113.70
2018-10-12T02:32:37.945Z,118.43
2018-10-12T02:35:07.653Z,111.33
2018-10-12T02:37:36.333Z,120.90
2018-10-12T02:40:05.026Z,124.90
2018-10-12T02:42:33.582Z,127.73
2018-10-12T02:45:02.209Z,129.73
2018-10-12T02:47:30.755Z,135.37
2018-10-12T02:49:59.279Z,131.57
2018-10-12T02:52:27.927Z,120.83
2018-10-12T02:54:56.523Z,121.37
2018-10-12T02:57:25.118Z,117.93
2018-10-12T02:59:53.891Z,117.53
2018-10-12T03:02:22.488Z,109.40
2018-10-12T03:04:51.124Z,106.73
2018-10-12T03:07:19.766Z,102.20
2018-10-12T03:09:48.537Z,99.50
2018-10-12T03:12:17.245Z,92.47
2018-10-12T03:14:45.876Z,88.77
2018-10-12T03:17:14.379Z,91.60
2018-10-12T03:19:42.842Z,90.30
2018-10-12T03:22:11.805Z,88.13
2018-10-12T03:24:41.616Z,89.30
2018-10-12T03:27:10.445Z,77.50
2018-10-12T03:29:39.331Z,78.03
2018-10-12T03:32:08.022Z,76.20
2018-10-12T03:34:36.713Z,69.17
2018-10-12T03:37:05.418Z,67.53
2018-10-12T03:39:34.207Z,68.20
2018-10-12T03:42:02.738Z,59.93
2018-10-12T03:44:31.385Z,59.87
2018-10-12T03:46:59.937Z,58.97
2018-10-12T03:49:28.701Z,59.17
2018-10-12T03:51:57.368Z,63.43
2018-10-12T03:54:25.992Z,55.33
2018-10-12T03:56:54.707Z,57.60
2018-10-12T03:59:23.793Z,60.47
2018-10-12T04:01:52.453Z,55.87
2018-10-12T04:04:22.966Z,58.00
2018-10-12T04:06:52.654Z,56.00
2018-10-12T04:09:21.318Z,60.90
2018-10-12T04:11:49.912Z,54.97
2018-10-12T04:14:18.655Z,57.23
2018-10-12T04:16:47.246Z,54.53
2018-10-12T04:19:15.747Z,54.43
2018-10-12T04:21:44.362Z,56.20
2018-10-12T04:24:12.963Z,56.30
2018-10-12T04:26:41.536Z,54.43
2018-10-12T04:29:10.226Z,58.30
2018-10-12T04:31:39.821Z,54.17
2018-10-12T04:34:08.441Z,54.73
2018-10-12T04:36:37.904Z,56.77
2018-10-12T04:39:17.597Z,57.43
2018-10-12T04:41:46.239Z,55.47
2018-10-12T04:44:15.832Z,55.43
2018-10-12T04:46:44.859Z,57.07
2018-10-12T04:49:15.242Z,55.97
2018-10-12T04:51:46.747Z,53.27
2018-10-12T04:54:16.633Z,67.43
2018-10-12T04:56:45.821Z,61.20
2018-10-12T04:59:14.369Z,56.27
2018-10-12T05:01:43.141Z,51.60
2018-10-12T05:04:11.761Z,53.53
2018-10-12T05:06:40.510Z,54.47
2018-10-12T05:09:10.477Z,54.00
2018-10-12T05:11:39.272Z,48.83
2018-10-12T05:14:08.020Z,56.80
2018-10-12T05:16:36.987Z,56.23
2018-10-12T05:19:05.841Z,59.73
2018-10-12T05:21:34.542Z,57.37
2018-10-12T05:24:03.321Z,55.20
2018-10-12T05:26:31.985Z,58.37
2018-10-12T05:29:00.652Z,60.50
2018-10-12T05:31:29.261Z,57.40
2018-10-12T05:33:57.849Z,58.87
2018-10-12T05:36:26.519Z,60.37
2018-10-12T05:38:55.144Z,58.03
2018-10-12T05:41:23.777Z,55.10
2018-10-12T05:43:52.410Z,55.63
2018-10-12T05:46:20.909Z,55.63
2018-10-12T05:49:01.555Z,56.70
2018-10-12T05:51:30.161Z,52.17
2018-10-12T05:53:59.205Z,49.53
2018-10-12T05:56:31.087Z,57.33
2018-10-12T05:58:59.931Z,56.13
2018-10-12T06:01:28.899Z,55.70
2018-10-12T06:03:57.412Z,52.77
2018-10-12T06:06:26.071Z,55.00
2018-10-12T06:08:54.931Z,56.33
2018-10-12T06:11:24.586Z,53.53
2018-10-12T06:13:54.270Z,58.80
2018-10-12T06:16:23.114Z,56.23
2018-10-12T06:18:51.941Z,56.87
2018-10-12T06:21:20.441Z,53.77
2018-10-12T06:23:48.978Z,51.43
2018-10-12T06:26:17.458Z,55.50
2018-10-12T06:28:46.056Z,54.07
2018-10-12T06:31:14.597Z,58.47
2018-10-12T06:33:43.196Z,53.90
2018-10-12T06:36:11.723Z,58.17
2018-10-12T06:38:40.319Z,53.13
2018-10-12T06:41:08.988Z,54.23
2018-10-12T06:43:37.598Z,52.97
2018-10-12T06:46:06.737Z,51.33
2018-10-12T06:48:35.385Z,52.13
2018-10-12T06:51:04.081Z,50.70
2018-10-12T06:53:32.694Z,50.70
2018-10-12T06:56:01.225Z,50.97
2018-10-12T06:58:29.896Z,49.27
2018-10-12T07:00:58.457Z,43.50
2018-10-12T07:03:27.059Z,44.27
2018-10-12T07:05:57.810Z,46.33
2018-10-12T07:08:26.327Z,45.50
2018-10-12T07:10:54.830Z,46.03
2018-10-12T07:13:23.401Z,50.73
2018-10-12T07:15:51.987Z,41.47
2018-10-12T07:18:20.758Z,47.30
2018-10-12T07:20:49.389Z,40.90
2018-10-12T07:23:17.992Z,42.03
2018-10-12T07:25:46.781Z,42.83
2018-10-12T07:28:16.298Z,45.27
2018-10-12T07:30:44.958Z,40.30
2018-10-12T07:33:13.529Z,46.23
2018-10-12T07:35:42.176Z,46.20
2018-10-12T07:38:10.693Z,43.97
2018-10-12T07:40:39.306Z,46.17
2018-10-12T07:43:07.893Z,44.87
2018-10-12T07:45:36.570Z,51.80
2018-10-12T07:48:05.263Z,44.23
2018-10-12T07:50:34.004Z,46.30
2018-10-12T07:53:02.498Z,43.70
2018-10-12T07:55:31.041Z,50.53
2018-10-12T07:57:59.619Z,43.47
2018-10-12T08:00:28.455Z,42.80
2018-10-12T08:02:57.011Z,43.30
2018-10-12T08:05:25.640Z,41.37
2018-10-12T08:07:54.193Z,43.37
2018-10-12T08:10:23.793Z,40.60
2018-10-12T08:12:52.386Z,41.00
2018-10-12T08:15:20.941Z,41.60
2018-10-12T08:17:49.632Z,37.17
2018-10-12T08:20:18.639Z,43.60
2018-10-12T08:22:47.213Z,36.90
2018-10-12T08:25:15.808Z,41.43
2018-10-12T08:27:44.606Z,38.50
2018-10-12T08:30:13.307Z,39.83
2018-10-12T08:32:41.952Z,38.30
2018-10-12T08:35:10.796Z,37.47
2018-10-12T08:37:39.469Z,36.27
2018-10-12T08:40:08.046Z,35.87
2018-10-12T08:42:37.080Z,38.10
2018-10-12T08:45:06.845Z,40.80
2018-10-12T08:47:35.338Z,36.10
2018-10-12T08:50:03.881Z,33.53
2018-10-12T08:52:32.637Z,33.47
2018-10-12T08:55:01.299Z,38.20
2018-10-12T08:57:30.184Z,32.20
2018-10-12T08:59:58.939Z,37.80
2018-10-12T09:02:28.561Z,33.43
2018-10-12T09:04:57.238Z,33.20
2018-10-12T09:07:25.926Z,33.23
2018-10-12T09:09:54.574Z,32.87
2018-10-12T09:12:24.110Z,33.47
2018-10-12T09:14:53.357Z,29.40
2018-10-12T09:17:21.897Z,27.10
2018-10-12T09:19:50.549Z,28.03
2018-10-12T09:22:19.101Z,29.33
2018-10-12T09:24:47.776Z,29.33
2018-10-12T09:27:16.478Z,30.03
2018-10-12T09:29:45.026Z,29.70
2018-10-12T09:32:14.004Z,24.83
2018-10-12T09:34:42.493Z,31.33
2018-10-12T09:37:11.037Z,30.67
2018-10-12T09:39:39.650Z,27.93
2018-10-12T09:42:08.321Z,27.13
2018-10-12T09:44:37.023Z,32.53
2018-10-12T09:47:05.536Z,27.00
2018-10-12T09:49:34.139Z,30.90
2018-10-12T09:52:02.812Z,29.53
2018-10-12T09:54:31.402Z,27.60
2018-10-12T09:57:05.117Z,28.60
2018-10-12T09:59:33.773Z,27.47
2018-10-12T10:02:07.875Z,32.30
2018-10-12T10:04:37.129Z,28.13
2018-10-12T10:07:05.873Z,30.10
2018-10-12T10:09:34.605Z,30.60
2018-10-12T10:12:03.270Z,30.97
2018-10-12T10:14:31.981Z,25.93
2018-10-12T10:17:00.625Z,26.97
2018-10-12T10:19:29.126Z,27.00
2018-10-12T10:21:57.782Z,28.77
2018-10-12T10:24:26.415Z,32.43
2018-10-12T10:26:55.242Z,30.73
2018-10-12T10:29:23.871Z,31.50
2018-10-12T10:31:53.863Z,28.97
2018-10-12T10:34:22.058Z,28.50
2018-10-12T10:36:52.842Z,26.73
2018-10-12T10:39:21.403Z,29.97
2018-10-12T10:41:50.043Z,29.27
2018-10-12T10:44:18.728Z,31.07
2018-10-12T10:46:47.269Z,28.47
2018-10-12T10:49:15.930Z,27.30
2018-10-12T10:51:44.497Z,30.53
2018-10-12T10:54:13.662Z,31.20
2018-10-12T10:56:42.216Z,28.23
2018-10-12T10:59:10.771Z,27.83
2018-10-12T11:01:39.803Z,29.73
2018-10-12T11:04:08.665Z,32.47
2018-10-12T11:06:37.358Z,29.67
2018-10-12T11:09:09.104Z,30.87
2018-10-12T11:11:37.651Z,34.63
2018-10-12T11:14:06.199Z,28.47
2018-10-12T11:16:34.963Z,29.30
2018-10-12T11:19:03.715Z,26.87
2018-10-12T11:21:33.080Z,23.83
2018-10-12T11:24:01.698Z,24.60
2018-10-12T11:26:30.428Z,28.57
2018-10-12T11:28:58.944Z,25.27
2018-10-12T11:31:28.609Z,23.17
2018-10-12T11:33:57.351Z,23.17
2018-10-12T11:36:26.550Z,24.70
2018-10-12T11:38:55.189Z,23.53
2018-10-12T11:41:23.868Z,23.30
2018-10-12T11:43:52.438Z,28.50
2018-10-12T11:46:21.200Z,23.23
2018-10-12T11:48:49.734Z,23.60
2018-10-12T11:51:18.489Z,24.20
2018-10-12T11:53:47.091Z,22.60
2018-10-12T11:56:15.800Z,23.43
2018-10-12T11:58:44.338Z,25.00
2018-10-12T12:01:12.851Z,25.32
2018-10-12T12:03:41.429Z,22.22
2018-10-12T12:06:10.260Z,22.37
2018-10-12T12:08:38.811Z,22.13
2018-10-12T12:11:07.707Z,29.27
2018-10-12T12:13:36.343Z,23.92
2018-10-12T12:16:05.019Z,22.50
2018-10-12T12:18:33.587Z,26.17
2018-10-12T12:21:02.368Z,21.60
2018-10-12T12:23:31.110Z,24.07
2018-10-12T12:25:59.646Z,26.05
2018-10-12T12:28:28.264Z,21.90
2018-10-12T12:30:56.953Z,20.12
2018-10-12T12:33:26.890Z,20.97
2018-10-12T12:35:55.812Z,18.37
2018-10-12T12:38:24.017Z,20.37
2018-10-12T12:40:52.790Z,20.45
2018-10-12T12:43:21.284Z,19.05
2018-10-12T12:45:49.777Z,18.87
2018-10-12T12:48:19.890Z,17.85
2018-10-12T12:50:48.109Z,19.77
2018-10-12T12:53:16.697Z,18.98
2018-10-12T12:55:45.393Z,21.23
2018-10-12T12:58:14.045Z,18.87
2018-10-12T13:00:42.624Z,116.50
2018-10-12T13:03:11.206Z,20.32
2018-10-12T13:05:40.074Z,21.07
2018-10-12T13:08:09.735Z,18.50
2018-10-12T13:10:38.261Z,19.10
2018-10-12T13:13:07.147Z,19.60
2018-10-12T13:15:35.907Z,18.70
2018-10-12T13:18:04.624Z,19.80
2018-10-12T13:20:33.239Z,21.02
2018-10-12T13:23:01.953Z,19.23
2018-10-12T13:25:30.614Z,21.30
2018-10-12T13:27:59.163Z,21.48
2018-10-12T13:30:27.732Z,20.08
2018-10-12T13:32:56.234Z,19.50
2018-10-12T13:35:25.932Z,22.25
2018-10-12T13:37:54.527Z,19.80
2018-10-12T13:40:23.078Z,24.02
2018-10-12T13:42:51.633Z,22.90
2018-10-12T13:45:20.367Z,19.87
2018-10-12T13:47:48.917Z,22.30
2018-10-12T13:50:17.510Z,22.42
2018-10-12T13:52:46.202Z,19.73
2018-10-12T13:55:14.744Z,18.98
2018-10-12T13:57:43.440Z,19.30
2018-10-12T14:00:12.178Z,24.45
2018-10-12T14:02:42.153Z,19.92
2018-10-12T14:05:10.764Z,21.50
2018-10-12T14:07:39.327Z,22.93
2018-10-12T14:10:07.907Z,20.43
2018-10-12T14:12:36.513Z,24.43
2018-10-12T14:15:05.911Z,21.25
2018-10-12T14:17:34.606Z,20.30
2018-10-12T14:20:03.324Z,22.98
2018-10-12T14:22:31.804Z,21.15
2018-10-12T14:25:00.430Z,21.93
2018-10-12T14:27:29.094Z,23.50
2018-10-12T14:29:57.778Z,23.55
2018-10-12T14:32:26.513Z,26.75
2018-10-12T14:34:55.193Z,24.55
2018-10-12T14:37:23.789Z,22.90
2018-10-12T14:39:52.456Z,20.50
2018-10-12T14:42:21.046Z,21.42
2018-10-12T14:44:49.720Z,28.20
2018-10-12T14:47:18.287Z,22.48
2018-10-12T14:49:46.920Z,21.97
2018-10-12T14:52:15.491Z,23.32
2018-10-12T14:54:44.042Z,22.00
2018-10-12T14:57:19.326Z,24.23
2018-10-12T14:59:49.073Z,30.82
2018-10-12T15:02:18.351Z,21.00
2018-10-12T15:04:47.007Z,24.80
2018-10-12T15:07:15.695Z,25.10
2018-10-12T15:09:44.388Z,22.90
2018-10-12T15:12:12.955Z,25.90
2018-10-12T15:15:24.390Z,20.40
2018-10-12T15:17:54.168Z,28.57
2018-10-12T15:20:24.259Z,28.60
2018-10-12T15:22:53.613Z,22.30
2018-10-12T15:25:22.210Z,25.63
2018-10-12T15:27:50.805Z,25.87
2018-10-12T15:30:20.215Z,28.37
2018-10-12T15:32:48.785Z,30.43
2018-10-12T15:35:17.340Z,28.50
2018-10-12T15:37:46.166Z,26.33
2018-10-12T15:40:14.904Z,22.57
2018-10-12T15:42:50.206Z,25.47
2018-10-12T15:45:18.885Z,26.70
2018-10-12T15:47:47.585Z,25.20
2018-10-12T15:50:16.286Z,28.93
2018-10-12T15:52:44.852Z,28.37
2018-10-12T15:55:13.491Z,26.00
2018-10-12T15:57:42.113Z,29.40
2018-10-12T16:00:11.819Z,29.20
2018-10-12T16:02:41.401Z,27.13
2018-10-12T16:05:10.054Z,24.47
2018-10-12T16:07:38.739Z,30.70
2018-10-12T16:10:08.500Z,29.13
2018-10-12T16:12:37.276Z,32.20
2018-10-12T16:15:06.054Z,34.40
2018-10-12T16:17:34.618Z,46.77
2018-10-12T16:20:03.306Z,35.17
2018-10-12T16:22:31.917Z,35.37
2018-10-12T16:25:11.950Z,33.57
2018-10-12T16:27:40.620Z,45.13
2018-10-12T16:30:09.227Z,41.30
2018-10-12T16:32:37.801Z,40.20
2018-10-12T16:35:06.547Z,44.10
2018-10-12T16:37:35.297Z,44.47
2018-10-12T16:40:04.023Z,48.53
2018-10-12T16:42:33.566Z,48.97
2018-10-12T16:45:02.177Z,49.17
2018-10-12T16:47:30.795Z,53.93
2018-10-12T16:49:59.374Z,71.47
2018-10-12T16:52:28.079Z,65.80
2018-10-12T16:54:56.596Z,57.37
2018-10-12T16:57:32.166Z,57.87
2018-10-12T17:00:00.694Z,64.27
2018-10-12T17:02:29.274Z,67.87
2018-10-12T17:04:57.929Z,68.07
2018-10-12T17:07:26.491Z,57.67
2018-10-12T17:10:01.702Z,59.60
2018-10-12T17:12:30.314Z,58.83
2018-10-12T17:14:58.974Z,52.93
2018-10-12T17:17:27.487Z,50.60
2018-10-12T17:19:56.002Z,52.17
2018-10-12T17:22:24.597Z,47.50
2018-10-12T17:24:53.414Z,48.90
2018-10-12T17:27:22.099Z,56.03
2018-10-12T17:29:50.707Z,44.73
2018-10-12T17:32:19.336Z,47.37
2018-10-12T17:34:48.493Z,42.97
2018-10-12T17:37:17.114Z,49.30
2018-10-12T17:39:45.617Z,43.03
2018-10-12T17:42:16.699Z,37.33
2018-10-12T17:44:45.500Z,38.63
2018-10-12T17:47:14.938Z,38.63
2018-10-12T17:49:43.732Z,39.47
2018-10-12T17:52:13.323Z,36.50
2018-10-12T17:54:41.921Z,34.97
2018-10-12T17:57:10.666Z,38.77
2018-10-12T17:59:39.225Z,34.07
2018-10-12T18:02:07.969Z,31.23
2018-10-12T18:04:36.525Z,34.73
2018-10-12T18:07:05.518Z,37.47
2018-10-12T18:09:34.159Z,30.80
2018-10-12T18:12:02.941Z,34.73
2018-10-12T18:14:31.584Z,35.57
2018-10-12T18:17:00.520Z,33.23
2018-10-12T18:19:30.329Z,33.47
2018-10-12T18:21:58.929Z,34.53
2018-10-12T18:24:27.633Z,33.80
2018-10-12T18:26:56.294Z,33.27
2018-10-12T18:29:26.190Z,36.90
2018-10-12T18:31:54.938Z,35.47
2018-10-12T18:34:23.621Z,34.73
2018-10-12T18:36:52.199Z,38.40
2018-10-12T18:39:20.779Z,37.93
2018-10-12T18:41:49.524Z,33.83
2018-10-12T18:44:18.110Z,35.67
2018-10-12T18:46:46.933Z,36.23
2018-10-12T18:49:15.503Z,33.57
2018-10-12T18:51:44.124Z,35.87
2018-10-12T18:54:12.766Z,34.87
2018-10-12T18:56:42.374Z,53.63
2018-10-12T18:59:11.175Z,45.17
2018-10-12T19:01:39.811Z,37.27
2018-10-12T19:04:08.537Z,44.37
2018-10-12T19:06:37.241Z,34.40
2018-10-12T19:09:08.148Z,35.05
2018-10-12T19:11:36.750Z,31.67
2018-10-12T19:14:05.497Z,33.70
2018-10-12T19:16:34.423Z,34.17
2018-10-12T19:19:03.315Z,33.70
2018-10-12T19:21:31.939Z,37.37
2018-10-12T19:24:00.664Z,35.37
2018-10-12T19:26:30.223Z,37.10
2018-10-12T19:28:58.758Z,44.63
2018-10-12T19:31:27.656Z,35.47
2018-10-12T19:33:56.142Z,34.80
2018-10-12T19:36:24.756Z,35.70
2018-10-12T19:38:53.318Z,36.37
2018-10-12T19:41:21.863Z,34.90
2018-10-12T19:43:51.431Z,39.53
2018-10-12T19:46:22.053Z,32.17
2018-10-12T19:48:50.644Z,35.90
2018-10-12T19:51:19.507Z,33.87
2018-10-12T19:53:48.162Z,36.57
2018-10-12T19:56:16.862Z,37.53
2018-10-12T19:58:45.460Z,35.70
2018-10-12T20:01:14.008Z,36.60
2018-10-12T20:03:42.601Z,44.27
2018-10-12T20:06:11.191Z,34.80
2018-10-12T20:08:39.763Z,35.00
2018-10-12T20:11:09.182Z,35.10
2018-10-12T20:13:37.740Z,34.00
2018-10-12T20:16:06.614Z,40.00
2018-10-12T20:18:35.715Z,32.67
2018-10-12T20:21:04.464Z,35.70
2018-10-12T20:23:33.097Z,33.97
2018-10-12T20:26:01.765Z,32.97
2018-10-12T20:28:30.679Z,40.20
2018-10-12T20:30:59.572Z,31.73
2018-10-12T20:33:34.676Z,39.87
2018-10-12T20:36:03.375Z,34.87
2018-10-12T20:38:32.106Z,32.17
2018-10-12T20:41:01.774Z,34.87
2018-10-12T20:43:30.470Z,32.00
2018-10-12T20:45:59.077Z,34.07
2018-10-12T20:48:27.706Z,36.33
2018-10-12T20:50:56.476Z,35.80
2018-10-12T20:53:28.746Z,32.70
2018-10-12T20:55:57.401Z,39.67
2018-10-12T20:58:25.952Z,38.77
2018-10-12T21:00:54.508Z,32.33
2018-10-12T21:03:24.411Z,35.47
2018-10-12T21:05:54.989Z,35.70
2018-10-12T21:08:23.590Z,36.70
2018-10-12T21:10:54.143Z,34.57
2018-10-12T21:13:22.761Z,36.97
2018-10-12T21:15:51.244Z,30.57
2018-10-12T21:18:19.812Z,35.20
2018-10-12T21:20:48.330Z,34.50
2018-10-12T21:23:16.949Z,31.20
2018-10-12T21:25:46.610Z,32.37
2018-10-12T21:28:15.209Z,34.90
2018-10-12T21:30:43.842Z,33.70
2018-10-12T21:33:12.639Z,34.87
2018-10-12T21:35:41.529Z,36.63
2018-10-12T21:38:10.157Z,37.70
2018-10-12T21:40:38.767Z,38.87
2018-10-12T21:43:07.420Z,39.20
2018-10-12T21:45:35.966Z,41.23
2018-10-12T21:48:08.667Z,36.50
2018-10-12T21:50:37.352Z,38.67
2018-10-12T21:53:06.229Z,41.20
2018-10-12T21:55:35.006Z,43.63
2018-10-12T21:58:03.765Z,35.13
2018-10-12T22:00:33.074Z,42.93
2018-10-12T22:03:01.858Z,39.43
2018-10-12T22:05:30.684Z,38.07
2018-10-12T22:07:59.239Z,40.03
2018-10-12T22:10:27.860Z,38.53
2018-10-12T22:12:56.501Z,41.77
2018-10-12T22:15:25.235Z,38.87
2018-10-12T22:17:53.767Z,40.70
2018-10-12T22:20:22.625Z,39.93
2018-10-12T22:22:51.518Z,38.13
2018-10-12T22:25:20.186Z,41.87
2018-10-12T22:27:48.990Z,40.17
2018-10-12T22:30:17.796Z,39.53
2018-10-12T22:32:46.484Z,41.27
2018-10-12T22:35:15.130Z,39.37
2018-10-12T22:37:43.718Z,46.60
2018-10-12T22:40:12.290Z,46.67
2018-10-12T22:42:40.962Z,46.07
2018-10-12T22:45:09.554Z,41.17
2018-10-12T22:47:38.281Z,43.67
2018-10-12T22:50:06.929Z,43.87
2018-10-12T22:52:35.522Z,42.20
2018-10-12T22:55:04.337Z,44.77
2018-10-12T22:57:32.971Z,39.97
2018-10-12T23:00:01.746Z,42.53
2018-10-12T23:02:30.359Z,42.30
2018-10-12T23:04:58.950Z,47.53
2018-10-12T23:07:28.220Z,44.23
2018-10-12T23:09:56.776Z,45.17
2018-10-12T23:12:25.956Z,48.90
2018-10-12T23:14:54.627Z,51.40
2018-10-12T23:17:23.286Z,45.60
2018-10-12T23:19:52.998Z,47.43
2018-10-12T23:22:21.659Z,42.63
2018-10-12T23:24:50.370Z,45.77
2018-10-12T23:27:18.994Z,49.00
2018-10-12T23:29:47.518Z,49.33
2018-10-12T23:32:16.186Z,47.07
2018-10-12T23:34:44.854Z,49.23
2018-10-12T23:37:13.495Z,50.00
2018-10-12T23:39:42.089Z,46.50
2018-10-12T23:42:10.686Z,47.43
2018-10-12T23:44:39.431Z,50.17
2018-10-12T23:47:08.222Z,50.80
2018-10-12T23:49:36.809Z,54.00
2018-10-12T23:52:05.364Z,50.20
2018-10-12T23:54:33.900Z,50.80
2018-10-12T23:57:02.600Z,46.50
2018-10-12T23:59:31.301Z,50.03
